Pagrindinis puslapis
METAR-TAF:

METAR-TAF

Oro uostai :

Bardufoss, Norvegija

platuma: 69-04N, ilguma: 018-32E, Aukštis: 7 m

Dabartinis oras

Ataskaita buvo paskelbta 30 minutes, ne 06:20 UTC
Vėjas 2 kt nuo kintamojo kryptimis
Temperatūra -3°C
Drėgmė 86%
Slėgis 1009 hPa
Matomumas 10 km arba daugiau
Mažai debesys ne aukštis 1000 ft
Išsisklaidę debesys ne aukštis 3000 ft
Su prošvaistėmis ne aukštis 5000 ft

METAR: ENDU 100620Z VRB02KT 9999 FEW010 SCT030 BKN050 M03/M05 Q1009 RMK WIND 1100FT 25013KT WIND 2200FT 27023G38KT

Laikas: 08:50 (06:50 UTC)

Prognozė

Prognozė galioja nuo 09 metu 18 UTC su 10 metu 18 UTC
Vėjas 8 kt iš Vakarų
Matomumas 10 km arba daugiau
Mažai debesys ne aukštis 2000 ft
Su prošvaistėmis ne aukštis 4000 ft
Laikinai
nuo 09 metu 18 UTC su 10 metu 18 UTC
Matomumas: 1200 m
ne aukštis 800 ft
sniegas

TAF: ENDU 0918/1018 26008KT 9999 FEW020 BKN040 TEMPO 0918/1018 1200 SHSN VV008

Orai ataskaitas ir orų prognozės (METAR, TAF).

turimą stotys yra geltonos ir raudonos taškus žemėlapyje.

Perkelti pele per norėdami pamatyti stoties vardą.

Tada spustelėkite, norėdami matyti oro stebėjimo ir prognozės.

Norėdami pakeisti žemėlapį: spustelėkite ant žalios mygtukų su juodo kryžiaus žemyn,; žalią mygtuką su brūkšneliu, jei norite nutolinti; arba žalių rodyklių gretimoms žemėlapius.


METAR-TAF: